Lac Ste. Marie, Canada
Current Conditions -  °F | °C
As of 4:00 PM on Friday 31 Oct 2014 (Local Time) from CYOW Reporting Station
Broken Clouds Broken Clouds  
Wind Chill: 37°   Ceiling: 8000
Heat Index: 43°   Visibility: 15mi
Dew Point: 28°   Wind: 9mph
Humidity: 57%   Direction: 40°NE
Pressure: 30.05"   Gusts: NA
Location:  45.97°N, 75.93°W
Report Text: CYOW 312000Z 04008KT 15SM FEW030 SCT060 BKN080 06/M02 A3005 RMK SC1SC3AC4 SC TR SLP179
Loading
Personal Weather Stations






























Interactive Weather Map New forecast layout! Learn more

10-Day Weather Forecast

Advertisements
Track Severe Weather on mobile